createdAt,value
2019-03-24T00:00:02.677Z,78.37
2019-03-24T00:05:03.065Z,78.43
2019-03-24T00:10:02.555Z,78.42
2019-03-24T00:15:02.893Z,78.43
2019-03-24T00:20:03.370Z,78.48
2019-03-24T00:25:02.787Z,78.5
2019-03-24T00:30:03.203Z,78.53
2019-03-24T00:35:02.642Z,78.59
2019-03-24T00:40:03.093Z,78.58
2019-03-24T00:45:02.434Z,78.71
2019-03-24T00:50:02.818Z,78.74
2019-03-24T00:55:03.167Z,78.71
2019-03-24T01:00:02.581Z,78.73
2019-03-24T01:05:02.617Z,78.72
2019-03-24T01:10:03.061Z,78.69
2019-03-24T01:15:02.476Z,78.75
2019-03-24T01:20:02.935Z,78.78
2019-03-24T01:25:03.275Z,78.77
2019-03-24T01:30:02.676Z,78.74
2019-03-24T01:35:03.026Z,78.75
2019-03-24T01:40:02.442Z,78.77
2019-03-24T01:45:01.983Z,78.77
2019-03-24T01:50:02.303Z,78.8
2019-03-24T01:55:02.644Z,78.74
2019-03-24T02:00:02.962Z,78.77
2019-03-24T02:05:03.323Z,78.79
2019-03-24T02:10:02.756Z,78.76
2019-03-24T02:15:03.089Z,78.74
2019-03-24T02:20:02.495Z,78.82
2019-03-24T02:25:02.851Z,78.73
2019-03-24T02:30:03.290Z,78.68
2019-03-24T02:35:02.723Z,78.71
2019-03-24T02:40:03.157Z,78.74
2019-03-24T02:45:02.477Z,78.74
2019-03-24T02:50:02.795Z,78.76
2019-03-24T02:55:03.152Z,78.76
2019-03-24T03:00:02.568Z,78.85
2019-03-24T03:05:02.913Z,78.81
2019-03-24T03:10:02.336Z,78.87
2019-03-24T03:15:02.787Z,78.85
2019-03-24T03:20:03.211Z,78.83
2019-03-24T03:25:02.640Z,78.82
2019-03-24T03:30:03.105Z,78.84
2019-03-24T03:35:02.554Z,78.78
2019-03-24T03:40:03.048Z,78.78
2019-03-24T03:45:02.388Z,78.77
2019-03-24T03:50:02.740Z,78.77
2019-03-24T03:55:03.145Z,78.77
2019-03-24T04:00:02.568Z,78.81
2019-03-24T04:05:03.015Z,78.8
2019-03-24T04:10:02.446Z,78.79
2019-03-24T04:15:02.869Z,78.89
2019-03-24T04:20:03.313Z,78.98
2019-03-24T04:25:02.743Z,78.98
2019-03-24T04:30:03.187Z,79.06
2019-03-24T04:35:02.590Z,79.05
2019-03-24T04:40:03.049Z,79.08
2019-03-24T04:45:02.381Z,79.13
2019-03-24T04:50:02.798Z,79.26
2019-03-24T04:55:03.148Z,79.24
2019-03-24T05:00:02.466Z,79.25
2019-03-24T05:05:02.898Z,79.35
2019-03-24T05:10:03.349Z,79.39
2019-03-24T05:15:02.690Z,79.38
2019-03-24T05:20:03.116Z,79.37
2019-03-24T05:25:02.486Z,79.41
2019-03-24T05:30:02.870Z,79.43
2019-03-24T05:35:03.208Z,79.38
2019-03-24T05:40:02.728Z,79.38
2019-03-24T05:45:03.170Z,79.4
2019-03-24T05:50:03.097Z,79.34
2019-03-24T05:55:02.425Z,79.39
2019-03-24T06:00:02.753Z,79.41
2019-03-24T06:05:03.107Z,79.41
2019-03-24T06:10:02.493Z,79.44
2019-03-24T06:15:02.860Z,79.42
2019-03-24T06:20:03.400Z,79.49
2019-03-24T06:25:02.751Z,79.52
2019-03-24T06:30:03.183Z,79.55
2019-03-24T06:35:02.542Z,79.59
2019-03-24T06:40:03.037Z,79.66
2019-03-24T06:45:02.428Z,79.8
2019-03-24T06:50:02.788Z,79.84
2019-03-24T06:55:03.117Z,79.88
2019-03-24T07:00:02.445Z,79.99
2019-03-24T07:05:02.789Z,80.11
2019-03-24T07:10:03.239Z,80.24
2019-03-24T07:15:02.568Z,80.34
2019-03-24T07:20:02.182Z,80.49
2019-03-24T07:25:02.613Z,80.38
2019-03-24T07:30:03.358Z,80.33
2019-03-24T07:35:02.778Z,80.26
2019-03-24T07:40:03.222Z,80.29
2019-03-24T07:45:02.650Z,80.33
2019-03-24T07:50:03.027Z,80.23
2019-03-24T07:55:02.409Z,80.21
2019-03-24T08:00:03.094Z,80.15
2019-03-24T08:05:02.582Z,80.2
2019-03-24T08:10:03.160Z,80.36
2019-03-24T08:15:02.543Z,80.27
2019-03-24T08:20:02.922Z,80.31
2019-03-24T08:25:03.357Z,80.32
2019-03-24T08:30:02.757Z,80.3
2019-03-24T08:35:03.123Z,80.53
2019-03-24T08:40:02.594Z,80.63
2019-03-24T08:45:03.081Z,80.62
2019-03-24T08:50:02.466Z,80.65
2019-03-24T08:55:03.064Z,80.58
2019-03-24T09:00:03.897Z,80.58
2019-03-24T09:05:02.465Z,80.3
2019-03-24T09:10:02.951Z,80.16
2019-03-24T09:15:03.395Z,79.96
2019-03-24T09:20:02.806Z,79.85
2019-03-24T09:25:03.354Z,79.85
2019-03-24T09:30:02.777Z,80.0
2019-03-24T09:35:03.186Z,80.07
2019-03-24T09:40:02.709Z,79.91
2019-03-24T09:45:03.181Z,79.89
2019-03-24T09:50:02.598Z,79.88
2019-03-24T09:55:03.050Z,79.75
2019-03-24T10:00:02.472Z,79.78
2019-03-24T10:05:02.885Z,80.03
2019-03-24T10:10:03.320Z,79.92
2019-03-24T10:15:02.732Z,80.04
2019-03-24T10:20:03.078Z,79.96
2019-03-24T10:25:02.531Z,79.59
2019-03-24T10:30:02.938Z,79.32
2019-03-24T10:35:03.397Z,78.82
2019-03-24T10:40:02.902Z,78.75
2019-03-24T10:45:03.256Z,77.85
2019-03-24T10:50:02.665Z,77.9
2019-03-24T10:55:03.012Z,76.66
2019-03-24T11:00:02.467Z,76.65
2019-03-24T11:05:02.844Z,75.92
2019-03-24T11:10:03.315Z,76.03
2019-03-24T11:15:02.771Z,75.8
2019-03-24T11:20:03.212Z,75.14
2019-03-24T11:25:02.626Z,74.36
2019-03-24T11:30:03.025Z,74.3
2019-03-24T11:35:02.501Z,73.82
2019-03-24T11:40:02.938Z,73.49
2019-03-24T11:45:03.252Z,73.79
2019-03-24T11:50:03.680Z,73.32
2019-03-24T11:55:03.143Z,73.47
2019-03-24T12:00:02.757Z,73.65
2019-03-24T12:05:03.269Z,73.98
2019-03-24T12:10:02.689Z,73.75
2019-03-24T12:15:05.349Z,72.32
2019-03-24T12:20:02.855Z,72.07
2019-03-24T12:25:03.198Z,70.43
2019-03-24T12:30:02.641Z,70.0
2019-03-24T12:35:03.068Z,69.9
2019-03-24T12:40:01.664Z,63.51
2019-03-24T12:45:03.020Z,60.75
2019-03-24T12:50:08.781Z,60.6
2019-03-24T12:55:02.838Z,57.0
2019-03-24T13:00:03.187Z,55.49
2019-03-24T13:05:02.592Z,56.57
2019-03-24T13:10:02.980Z,55.88
2019-03-24T13:15:02.369Z,55.69
2019-03-24T13:20:02.806Z,56.91
2019-03-24T13:25:03.143Z,51.17
2019-03-24T13:30:02.576Z,51.63
2019-03-24T13:35:03.012Z,55.15
2019-03-24T13:40:02.421Z,52.35
2019-03-24T13:45:02.765Z,53.4
2019-03-24T13:50:03.113Z,55.53
2019-03-24T13:55:02.535Z,52.2
2019-03-24T14:00:02.870Z,53.73
2019-03-24T14:05:03.203Z,54.15
2019-03-24T14:10:02.628Z,55.46
2019-03-24T14:15:02.965Z,53.9
2019-03-24T14:20:02.395Z,53.07
2019-03-24T14:25:02.729Z,54.43
2019-03-24T14:30:03.081Z,53.48
2019-03-24T14:35:02.492Z,54.24
2019-03-24T14:40:02.929Z,52.82
2019-03-24T14:45:03.413Z,52.72
2019-03-24T14:50:02.807Z,52.7
2019-03-24T14:55:03.141Z,53.11
2019-03-24T15:00:02.549Z,54.25
2019-03-24T15:05:02.904Z,53.94
2019-03-24T15:10:03.345Z,55.09
2019-03-24T15:15:01.865Z,55.22
2019-03-24T15:20:03.303Z,56.47
2019-03-24T15:25:02.709Z,55.57
2019-03-24T15:30:03.067Z,56.64
2019-03-24T15:35:02.499Z,56.62
2019-03-24T15:40:02.887Z,57.61
2019-03-24T15:45:03.262Z,56.82
2019-03-24T15:50:02.690Z,57.7
2019-03-24T15:55:03.030Z,57.33
2019-03-24T16:00:02.438Z,56.77
2019-03-24T16:05:02.791Z,55.58
2019-03-24T16:10:03.230Z,52.52
2019-03-24T16:15:02.553Z,53.59
2019-03-24T16:20:02.990Z,52.26
2019-03-24T16:25:02.521Z,53.19
2019-03-24T16:30:02.853Z,52.15
2019-03-24T16:35:03.192Z,53.66
2019-03-24T16:40:02.584Z,54.7
2019-03-24T16:45:02.962Z,54.0
2019-03-24T16:50:03.400Z,54.15
2019-03-24T16:55:02.831Z,54.45
2019-03-24T17:00:03.263Z,52.43
2019-03-24T17:05:02.701Z,51.24
2019-03-24T17:10:03.130Z,51.7
2019-03-24T17:15:02.548Z,52.96
2019-03-24T17:20:02.986Z,53.27
2019-03-24T17:25:02.320Z,54.11
2019-03-24T17:30:02.746Z,55.19
2019-03-24T17:35:03.100Z,56.02
2019-03-24T17:40:02.599Z,55.31
2019-03-24T17:45:02.265Z,57.2
2019-03-24T17:50:01.875Z,58.06
2019-03-24T17:55:03.327Z,58.92
2019-03-24T18:00:02.767Z,59.59
2019-03-24T18:05:03.190Z,60.33
2019-03-24T18:10:02.635Z,60.61
2019-03-24T18:15:03.062Z,61.21
2019-03-24T18:20:02.433Z,61.86
2019-03-24T18:25:09.989Z,62.54
2019-03-24T18:30:02.339Z,62.94
2019-03-24T18:35:02.811Z,63.51
2019-03-24T18:40:03.198Z,63.63
2019-03-24T18:45:02.542Z,63.72
2019-03-24T18:50:02.985Z,63.86
2019-03-24T18:55:02.401Z,64.18
2019-03-24T19:00:02.740Z,64.38
2019-03-24T19:05:03.197Z,64.59
2019-03-24T19:10:02.691Z,64.72
2019-03-24T19:15:03.042Z,64.89
2019-03-24T19:20:02.458Z,65.06
2019-03-24T19:25:02.806Z,65.24
2019-03-24T19:30:03.154Z,65.38
2019-03-24T19:35:02.470Z,65.48
2019-03-24T19:40:02.908Z,65.69
2019-03-24T19:45:03.235Z,65.88
2019-03-24T19:50:02.658Z,65.98
2019-03-24T19:55:03.013Z,66.18
2019-03-24T20:00:02.425Z,66.25
2019-03-24T20:05:02.754Z,66.42
2019-03-24T20:10:03.218Z,66.46
2019-03-24T20:15:02.629Z,66.61
2019-03-24T20:20:02.979Z,66.71
2019-03-24T20:25:02.386Z,66.91
2019-03-24T20:30:02.745Z,67.0
2019-03-24T20:35:03.262Z,67.16
2019-03-24T20:40:01.948Z,67.23
2019-03-24T20:45:03.337Z,67.39
2019-03-24T20:50:03.816Z,67.46
2019-03-24T20:55:03.305Z,67.61
2019-03-24T21:00:02.750Z,67.7
2019-03-24T21:05:03.167Z,67.76
2019-03-24T21:10:02.619Z,67.84
2019-03-24T21:15:03.044Z,67.92
2019-03-24T21:20:02.423Z,67.97
2019-03-24T21:25:02.797Z,68.09
2019-03-24T21:30:03.138Z,68.16
2019-03-24T21:35:02.586Z,68.28
2019-03-24T21:40:02.993Z,68.38
2019-03-24T21:45:02.445Z,68.46
2019-03-24T21:50:02.769Z,68.57
2019-03-24T21:55:03.193Z,68.72
2019-03-24T22:00:02.606Z,68.78
2019-03-24T22:05:03.005Z,68.91
2019-03-24T22:10:02.507Z,68.93
2019-03-24T22:15:02.918Z,69.12
2019-03-24T22:20:03.249Z,69.17
2019-03-24T22:25:02.578Z,69.24
2019-03-24T22:30:02.917Z,69.29
2019-03-24T22:35:03.265Z,69.33
2019-03-24T22:40:02.676Z,69.37
2019-03-24T22:45:03.019Z,69.41
2019-03-24T22:50:02.448Z,69.43
2019-03-24T22:55:02.780Z,69.47
2019-03-24T23:00:03.193Z,69.49
2019-03-24T23:05:02.601Z,69.51
2019-03-24T23:10:02.188Z,69.54
2019-03-24T23:15:02.556Z,69.58
2019-03-24T23:20:02.998Z,69.65
2019-03-24T23:25:02.422Z,69.67
2019-03-24T23:30:02.769Z,69.71
2019-03-24T23:35:03.101Z,69.76
2019-03-24T23:40:02.532Z,69.84
2019-03-24T23:45:02.875Z,69.97
2019-03-24T23:50:03.302Z,70.04
2019-03-24T23:55:02.717Z,70.07
